Time;durP1;ratioP1;P1;durP2;ratioP2;P2;SDS_P1;SDS_P2;PMS_P1;PMS_P2;Temp;Humidity;BMP_temperature;BMP_pressure;BME280_temperature;BME280_humidity;BME280_pressure;Samples;Min_cycle;Max_cycle;Signal;HPM_P1;HPM_P2
2023/09/02 00:00:01;;;;;;;47.65;45.25;;;;;;;18.39;100.00;101394.56;5091716;28;20131;-76
2023/09/02 00:02:35;;;;;;;58.10;55.30;;;;;;;18.31;100.00;101401.97;5090541;28;20052;-75
2023/09/02 00:05:02;;;;;;;50.10;47.70;;;;;;;18.29;100.00;101412.13;5077502;28;20044;-76
2023/09/02 00:07:29;;;;;;;47.30;44.80;;;;;;;18.67;100.00;101402.59;5089787;28;20134;-75
2023/09/02 00:09:59;;;;;;;51.58;49.08;;;;;;;18.48;100.00;101407.34;5090005;28;20101;-76
2023/09/02 00:12:26;;;;;;;50.90;48.20;;;;;;;18.25;100.00;101411.00;5079401;28;20048;-75
2023/09/02 00:15:19;;;;;;;42.55;40.15;;;;;;;17.65;100.00;101408.66;5087066;28;20048;-76
2023/09/02 00:17:47;;;;;;;52.38;49.67;;;;;;;17.96;100.00;101402.09;5075675;28;20048;-76
2023/09/02 00:20:14;;;;;;;44.13;41.83;;;;;;;17.36;100.00;101405.88;5090137;28;20044;-75
2023/09/02 00:22:41;;;;;;;43.33;41.03;;;;;;;17.43;100.00;101402.25;5095150;28;20054;-75
2023/09/02 00:25:09;;;;;;;39.95;37.65;;;;;;;17.94;100.00;101412.25;5101053;28;20052;-75
2023/09/02 00:27:36;;;;;;;36.35;34.35;;;;;;;17.84;100.00;101410.16;5093353;28;20444;-76
2023/09/02 00:30:03;;;;;;;35.75;33.75;;;;;;;18.00;100.00;101405.94;5090169;28;20051;-76
2023/09/02 00:32:48;;;;;;;52.72;50.22;;;;;;;18.02;100.00;101414.56;5091594;28;20059;-76
2023/09/02 00:35:34;;;;;;;43.25;41.10;;;;;;;17.95;100.00;101416.59;5089936;28;20047;-75
2023/09/02 00:38:01;;;;;;;44.55;42.15;;;;;;;17.44;100.00;101418.16;5100283;28;20048;-76
2023/09/02 00:41:00;;;;;;;46.92;44.33;;;;;;;17.13;100.00;101417.44;5106216;28;20043;-76
2023/09/02 00:43:28;;;;;;;40.60;38.40;;;;;;;17.50;100.00;101417.22;5097675;28;20048;-76
2023/09/02 00:46:04;;;;;;;44.92;42.53;;;;;;;17.52;100.00;101425.84;5107767;28;20134;-76
2023/09/02 00:48:32;;;;;;;41.13;38.80;;;;;;;17.75;100.00;101413.44;5092696;28;20105;-76
2023/09/02 00:50:59;;;;;;;39.83;37.60;;;;;;;17.73;100.00;101416.38;5094131;28;20512;-76
2023/09/02 00:53:44;;;;;;;42.53;40.22;;;;;;;17.40;100.00;101415.13;5096565;28;20070;-76
2023/09/02 00:56:16;;;;;;;45.05;42.75;;;;;;;17.35;100.00;101419.56;5101902;28;20048;-76
2023/09/02 00:58:51;;;;;;;40.53;38.33;;;;;;;17.08;100.00;101430.75;5093430;28;20051;-76
2023/09/02 01:01:19;;;;;;;35.22;33.10;;;;;;;17.55;100.00;101422.69;5091204;28;20051;-75
2023/09/02 01:03:46;;;;;;;44.17;41.78;;;;;;;17.53;100.00;101415.94;5094361;28;20073;-76
2023/09/02 01:06:14;;;;;;;41.22;39.03;;;;;;;17.45;100.00;101422.47;5093189;28;20055;-76
2023/09/02 01:08:45;;;;;;;46.13;43.72;;;;;;;17.29;100.00;101425.84;5093907;28;20098;-75
2023/09/02 01:11:11;;;;;;;42.38;40.10;;;;;;;16.54;100.00;101423.72;5095424;28;20052;-76
2023/09/02 01:13:40;;;;;;;41.72;39.08;;;;;;;17.04;100.00;101426.91;5097683;28;20048;-76
2023/09/02 01:16:07;;;;;;;60.13;57.10;;;;;;;17.03;100.00;101429.78;5093241;28;20429;-75
2023/09/02 01:18:35;;;;;;;58.28;55.35;;;;;;;16.92;100.00;101428.75;5094197;28;20048;-76
2023/09/02 01:21:32;;;;;;;64.10;60.90;;;;;;;16.95;100.00;101428.28;5093003;28;20044;-75
2023/09/02 01:24:28;;;;;;;53.60;50.90;;;;;;;16.98;100.00;101430.50;5090454;28;20099;-75
2023/09/02 01:27:12;;;;;;;51.05;48.38;;;;;;;17.01;100.00;101419.31;5098659;28;20456;-76
2023/09/02 01:30:05;;;;;;;53.95;51.13;;;;;;;16.90;100.00;101431.63;5101379;28;20048;-75
2023/09/02 01:32:43;;;;;;;46.25;43.80;;;;;;;16.70;100.00;101431.09;5099853;28;20052;-75
2023/09/02 01:35:16;;;;;;;45.33;42.83;;;;;;;16.13;100.00;101438.69;5100904;28;20479;-75
2023/09/02 01:37:45;;;;;;;45.35;42.75;;;;;;;16.44;100.00;101441.16;5092854;28;20049;-76
2023/09/02 01:40:24;;;;;;;43.20;40.80;;;;;;;16.71;100.00;101428.19;5093087;28;20055;-75
2023/09/02 01:42:55;;;;;;;46.20;43.30;;;;;;;16.87;100.00;101436.66;5091667;28;20059;-75
2023/09/02 01:45:23;;;;;;;41.42;39.13;;;;;;;17.15;100.00;101430.63;5105088;28;20347;-75
2023/09/02 01:48:32;;;;;;;37.63;35.53;;;;;;;17.02;100.00;101434.34;5106389;28;20048;-75
2023/09/02 01:51:07;;;;;;;34.50;32.45;;;;;;;16.94;100.00;101434.69;5101158;28;20048;-75
2023/09/02 01:53:36;;;;;;;39.67;37.67;;;;;;;17.03;100.00;101440.53;5100650;28;20044;-75
2023/09/02 01:56:14;;;;;;;39.85;37.55;;;;;;;15.94;100.00;101441.38;5109182;28;20622;-75
2023/09/02 01:58:49;;;;;;;35.90;33.60;;;;;;;16.40;100.00;101444.50;5093131;28;20441;-75
2023/09/02 02:01:22;;;;;;;34.85;32.75;;;;;;;16.41;100.00;101446.16;5092869;28;20044;-76
2023/09/02 02:03:58;;;;;;;36.42;34.13;;;;;;;16.26;100.00;101446.56;5107579;28;20055;-75
2023/09/02 02:06:32;;;;;;;36.67;34.35;;;;;;;16.36;100.00;101441.47;5096750;28;20048;-75
2023/09/02 02:09:04;;;;;;;35.80;33.53;;;;;;;16.67;100.00;101447.63;5095056;28;20058;-75
2023/09/02 02:11:35;;;;;;;34.42;32.17;;;;;;;16.89;100.00;101447.97;5089307;28;20063;-76
2023/09/02 02:14:05;;;;;;;40.53;38.22;;;;;;;17.36;100.00;101437.28;5092537;28;20054;-76
2023/09/02 02:16:33;;;;;;;43.10;40.72;;;;;;;17.31;100.00;101438.00;5080793;28;20564;-76
2023/09/02 02:19:02;;;;;;;45.33;42.90;;;;;;;17.34;100.00;101434.84;5095043;28;20055;-75
2023/09/02 02:21:30;;;;;;;40.97;38.88;;;;;;;17.26;100.00;101435.19;5091946;28;20040;-75
2023/09/02 02:23:57;;;;;;;63.92;60.92;;;;;;;16.74;100.00;101434.16;5092691;28;20518;-75
2023/09/02 02:26:24;;;;;;;44.42;42.03;;;;;;;17.00;100.00;101447.16;5087186;28;20044;-75
2023/09/02 02:28:51;;;;;;;41.30;39.05;;;;;;;17.26;100.00;101437.88;5091812;28;20048;-75
2023/09/02 02:31:19;;;;;;;33.28;31.45;;;;;;;17.29;100.00;101429.34;5092294;28;20044;-76
2023/09/02 02:33:46;;;;;;;33.67;31.77;;;;;;;17.35;100.00;101436.47;5097087;28;20060;-76
2023/09/02 02:36:13;;;;;;;37.53;35.53;;;;;;;17.33;100.00;101432.38;5090155;28;20059;-75
2023/09/02 02:38:40;;;;;;;28.35;26.75;;;;;;;17.45;100.00;101438.56;5109467;28;20058;-75
2023/09/02 02:41:06;;;;;;;37.92;35.80;;;;;;;16.23;100.00;101447.00;5100140;28;20040;-76
2023/09/02 02:43:33;;;;;;;32.90;30.92;;;;;;;16.94;100.00;101440.88;5091352;28;20516;-76
2023/09/02 02:46:00;;;;;;;36.95;34.85;;;;;;;16.97;100.00;101444.13;5099895;28;20068;-76
2023/09/02 02:48:30;;;;;;;38.08;36.08;;;;;;;16.89;100.00;101445.31;5091666;28;20052;-75
2023/09/02 02:50:58;;;;;;;31.55;29.83;;;;;;;15.95;100.00;101450.25;5073345;28;20048;-75
2023/09/02 02:53:39;;;;;;;33.60;31.60;;;;;;;15.99;100.00;101452.25;5090465;28;20048;-75
2023/09/02 02:56:06;;;;;;;37.67;35.78;;;;;;;16.43;100.00;101452.94;5091339;28;20501;-76
2023/09/02 02:58:58;;;;;;;31.92;30.25;;;;;;;16.78;100.00;101446.91;5096783;28;20048;-76
2023/09/02 03:01:33;;;;;;;34.55;32.65;;;;;;;15.80;100.00;101453.28;5093968;28;20418;-75
2023/09/02 03:04:01;;;;;;;29.08;27.38;;;;;;;16.51;100.00;101451.78;5088494;28;20511;-76
2023/09/02 03:06:32;;;;;;;27.08;25.48;;;;;;;16.84;100.00;101459.38;5091276;28;20052;-75
2023/09/02 03:08:59;;;;;;;29.92;28.23;;;;;;;16.96;100.00;101454.06;5090900;28;20432;-75
2023/09/02 03:11:26;;;;;;;28.98;27.27;;;;;;;15.93;100.00;101458.50;5094397;28;20059;-75
2023/09/02 03:13:55;;;;;;;38.38;36.25;;;;;;;16.10;100.00;101469.44;5090799;28;20078;-76
2023/09/02 03:16:22;;;;;;;38.88;36.42;;;;;;;16.53;100.00;101470.34;5087541;28;20055;-75
2023/09/02 03:18:56;;;;;;;44.78;42.58;;;;;;;16.44;100.00;101473.34;5088738;28;20425;-75
2023/09/02 03:21:24;;;;;;;52.03;47.42;;;;;;;16.32;100.00;101482.38;5091772;28;20436;-75
2023/09/02 03:23:53;;;;;;;49.03;46.17;;;;;;;15.46;100.00;101476.03;5091977;28;20055;-75
2023/09/02 03:26:22;;;;;;;43.25;40.65;;;;;;;15.03;100.00;101490.16;5090945;28;20504;-75
2023/09/02 03:28:49;;;;;;;49.20;46.20;;;;;;;15.91;100.00;101495.38;5090888;28;20071;-75
2023/09/02 03:31:23;;;;;;;39.40;37.35;;;;;;;16.11;100.00;101497.88;5090850;28;20055;-76
2023/09/02 03:33:50;;;;;;;41.45;39.15;;;;;;;16.11;100.00;101486.31;5094211;28;20097;-75
2023/09/02 03:36:19;;;;;;;31.08;29.27;;;;;;;15.67;100.00;101489.03;5092025;28;20051;-76
2023/09/02 03:38:48;;;;;;;27.13;25.52;;;;;;;15.87;100.00;101496.06;5093382;28;20054;-75
2023/09/02 03:41:17;;;;;;;26.38;24.83;;;;;;;16.00;100.00;101499.41;5090028;28;20047;-76
2023/09/02 03:43:54;;;;;;;24.92;23.33;;;;;;;16.19;100.00;101496.75;5079085;28;20448;-76
2023/09/02 03:46:22;;;;;;;26.92;25.13;;;;;;;15.16;100.00;101505.28;5090801;28;20054;-76
2023/09/02 03:48:49;;;;;;;22.17;20.48;;;;;;;15.14;100.00;101504.72;5094159;28;20052;-76
2023/09/02 03:51:17;;;;;;;23.65;22.02;;;;;;;15.93;100.00;101512.06;5104413;28;20464;-76
2023/09/02 03:53:51;;;;;;;25.52;23.92;;;;;;;16.32;100.00;101510.00;5108061;28;20051;-76
2023/09/02 03:56:24;;;;;;;24.88;23.38;;;;;;;16.32;100.00;101509.19;5091066;28;20048;-75
2023/09/02 03:58:51;;;;;;;25.35;23.88;;;;;;;16.37;100.00;101503.94;5089998;28;20059;-75
2023/09/02 04:01:25;;;;;;;23.55;22.05;;;;;;;16.63;100.00;101508.16;5093203;28;20048;-76
2023/09/02 04:03:59;;;;;;;22.10;20.63;;;;;;;16.47;100.00;101509.59;5090788;28;20044;-76
2023/09/02 04:06:39;;;;;;;22.25;20.75;;;;;;;16.38;100.00;101509.09;5094338;28;20044;-76
2023/09/02 04:09:08;;;;;;;22.75;21.35;;;;;;;16.66;100.00;101500.47;5092937;28;20067;-75
2023/09/02 04:11:35;;;;;;;23.00;21.50;;;;;;;16.28;100.00;101506.13;5092838;28;20489;-76
2023/09/02 04:14:05;;;;;;;21.63;20.23;;;;;;;16.55;100.00;101497.72;5095898;28;20047;-76
2023/09/02 04:16:39;;;;;;;26.33;24.70;;;;;;;16.89;100.00;101493.59;5090721;28;20050;-75
2023/09/02 04:19:17;;;;;;;26.00;24.20;;;;;;;17.17;100.00;101498.31;5095488;28;20071;-76
2023/09/02 04:21:50;;;;;;;26.00;24.50;;;;;;;17.18;100.00;101499.94;5095498;28;20480;-76
2023/09/02 04:24:18;;;;;;;24.10;22.60;;;;;;;17.30;100.00;101498.09;5096141;28;20109;-75
2023/09/02 04:26:48;;;;;;;24.40;22.67;;;;;;;17.40;100.00;101502.91;5098347;28;20051;-75
2023/09/02 04:29:15;;;;;;;25.60;24.00;;;;;;;17.24;100.00;101496.34;5102647;28;20067;-76
2023/09/02 04:31:41;;;;;;;26.58;24.88;;;;;;;17.36;100.00;101505.22;5095931;28;20046;-76
2023/09/02 04:34:08;;;;;;;25.02;23.38;;;;;;;17.52;100.00;101506.44;5099666;28;20051;-75
2023/09/02 04:36:35;;;;;;;23.25;21.65;;;;;;;17.72;100.00;101502.56;5101683;28;20512;-76
2023/09/02 04:39:06;;;;;;;25.20;23.50;;;;;;;17.78;100.00;101509.72;5103272;28;20048;-76
2023/09/02 04:41:37;;;;;;;24.95;23.35;;;;;;;17.82;100.00;101509.03;5093536;28;20044;-76
2023/09/02 04:44:10;;;;;;;23.40;21.80;;;;;;;17.60;100.00;101498.00;5093392;28;20056;-76
2023/09/02 04:46:38;;;;;;;24.20;22.60;;;;;;;17.92;100.00;101513.00;5093687;28;20474;-76
2023/09/02 04:49:11;;;;;;;24.75;22.98;;;;;;;17.94;100.00;101514.38;5098732;28;20044;-76
2023/09/02 04:51:38;;;;;;;22.75;21.05;;;;;;;18.18;100.00;101515.16;5093515;28;20050;-76
2023/09/02 04:54:05;;;;;;;24.15;22.40;;;;;;;18.13;100.00;101520.44;5093900;28;20074;-76
2023/09/02 04:56:37;;;;;;;23.50;21.58;;;;;;;18.27;100.00;101512.91;5096126;28;20059;-75
2023/09/02 04:59:04;;;;;;;23.25;21.70;;;;;;;18.34;100.00;101508.22;5107399;28;20066;-76
2023/09/02 05:01:32;;;;;;;23.05;21.55;;;;;;;18.27;100.00;101511.03;5092246;28;20063;-76
2023/09/02 05:04:06;;;;;;;25.63;24.13;;;;;;;18.43;100.00;101517.56;5094906;28;20044;-75
2023/09/02 05:06:41;;;;;;;22.80;21.40;;;;;;;18.43;100.00;101508.69;5092995;28;20439;-76
2023/09/02 05:09:17;;;;;;;22.63;21.08;;;;;;;18.48;100.00;101520.31;5093354;28;20051;-76
2023/09/02 05:11:45;;;;;;;24.63;23.02;;;;;;;18.60;100.00;101520.28;5093615;28;20512;-76
2023/09/02 05:14:32;;;;;;;23.85;22.25;;;;;;;18.66;100.00;101519.31;5093729;28;20406;-76
2023/09/02 05:16:59;;;;;;;26.15;24.55;;;;;;;18.74;100.00;101518.97;5081361;28;20428;-76
2023/09/02 05:19:26;;;;;;;25.20;23.60;;;;;;;18.89;100.00;101515.75;5110345;28;20047;-76
2023/09/02 05:21:54;;;;;;;25.20;23.60;;;;;;;19.01;100.00;101515.69;5098495;28;20074;-76
2023/09/02 05:24:21;;;;;;;24.58;23.08;;;;;;;19.33;100.00;101515.94;5093509;28;20071;-76
2023/09/02 05:26:49;;;;;;;28.23;26.52;;;;;;;19.14;100.00;101511.88;5104151;28;20059;-76
2023/09/02 05:29:16;;;;;;;25.40;23.80;;;;;;;19.66;100.00;101517.84;5089700;28;20040;-76
2023/09/02 05:31:43;;;;;;;26.35;24.75;;;;;;;19.64;100.00;101519.97;5093266;28;20425;-76
2023/09/02 05:34:10;;;;;;;30.13;28.52;;;;;;;19.87;100.00;101513.56;5091774;28;20044;-76
2023/09/02 05:36:43;;;;;;;30.63;28.92;;;;;;;19.98;100.00;101519.09;5092457;28;20051;-76
2023/09/02 05:39:10;;;;;;;28.08;25.77;;;;;;;20.08;100.00;101520.03;5095072;28;20072;-76
2023/09/02 05:41:47;;;;;;;27.83;26.23;;;;;;;20.13;100.00;101514.72;5095175;28;20055;-76
2023/09/02 05:44:25;;;;;;;27.58;25.98;;;;;;;20.22;100.00;101515.09;5097068;28;20036;-76
2023/09/02 05:46:52;;;;;;;26.05;24.45;;;;;;;20.32;100.00;101519.78;5104862;28;20130;-76
2023/09/02 05:49:20;;;;;;;25.98;24.38;;;;;;;20.36;100.00;101526.31;5105297;28;20048;-76
2023/09/02 05:51:52;;;;;;;25.60;24.02;;;;;;;20.38;100.00;101526.06;5092382;28;20044;-76
2023/09/02 05:54:18;;;;;;;25.58;23.98;;;;;;;20.32;100.00;101525.19;5072691;28;20407;-76
2023/09/02 05:56:47;;;;;;;24.60;23.20;;;;;;;20.71;100.00;101525.94;5091894;28;20402;-76
2023/09/02 05:59:14;;;;;;;24.52;23.13;;;;;;;20.69;100.00;101516.44;5093116;28;20118;-76
2023/09/02 06:01:44;;;;;;;26.55;25.15;;;;;;;20.97;100.00;101520.81;5092833;28;20421;-76
2023/09/02 06:04:21;;;;;;;26.80;25.30;;;;;;;21.17;100.00;101529.06;5091708;28;20093;-76
2023/09/02 06:06:48;;;;;;;25.27;23.67;;;;;;;21.67;100.00;101521.66;5095831;28;20040;-76
2023/09/02 06:09:17;;;;;;;23.55;22.10;;;;;;;21.65;100.00;101513.78;5093471;28;20429;-76
2023/09/02 06:11:48;;;;;;;24.25;22.80;;;;;;;21.86;100.00;101520.13;5091623;28;20040;-76
2023/09/02 06:14:14;;;;;;;25.70;24.15;;;;;;;21.76;100.00;101522.78;5092534;28;20051;-76
2023/09/02 06:17:03;;;;;;;24.88;23.27;;;;;;;21.84;100.00;101524.97;5097630;28;20059;-76
2023/09/02 06:19:44;;;;;;;25.40;23.80;;;;;;;22.32;100.00;101525.78;5092639;28;20052;-75
2023/09/02 06:22:12;;;;;;;27.63;26.05;;;;;;;26.25;100.00;101520.63;5084988;28;20070;-73
2023/09/02 06:24:38;;;;;;;28.65;27.00;;;;;;;23.48;100.00;101528.97;5091821;28;20052;-75
2023/09/02 06:27:05;;;;;;;30.00;28.30;;;;;;;22.82;100.00;101524.31;5091843;28;20095;-76
2023/09/02 06:29:32;;;;;;;30.10;28.30;;;;;;;22.68;100.00;101536.72;5091723;28;20063;-76
2023/09/02 06:31:59;;;;;;;26.30;24.70;;;;;;;23.16;100.00;101528.44;5091930;28;20040;-75
2023/09/02 06:34:30;;;;;;;24.30;22.83;;;;;;;23.52;100.00;101524.59;5092125;28;20044;-76
2023/09/02 06:36:56;;;;;;;26.00;24.40;;;;;;;23.31;100.00;101525.72;5088447;28;20059;-76
2023/09/02 06:39:24;;;;;;;26.02;24.48;;;;;;;23.43;100.00;101534.38;5092441;28;20063;-76
2023/09/02 06:41:50;;;;;;;24.25;22.65;;;;;;;23.75;100.00;101535.97;5099292;28;20044;-76
2023/09/02 06:44:19;;;;;;;26.77;25.25;;;;;;;23.84;100.00;101533.53;5101334;28;20485;-76
2023/09/02 06:46:47;;;;;;;24.70;23.30;;;;;;;23.90;100.00;101540.56;5090716;28;20131;-76
2023/09/02 06:49:14;;;;;;;22.98;21.77;;;;;;;24.16;100.00;101536.69;5093915;28;20055;-76
2023/09/02 06:51:42;;;;;;;28.02;26.50;;;;;;;23.93;100.00;101535.41;5099264;28;20506;-76
2023/09/02 06:54:09;;;;;;;22.55;21.05;;;;;;;24.45;100.00;101527.91;5091838;28;20400;-76
2023/09/02 06:56:36;;;;;;;24.23;22.63;;;;;;;24.74;100.00;101538.84;5090649;28;20063;-77
2023/09/02 06:59:04;;;;;;;21.70;20.20;;;;;;;24.44;100.00;101531.69;5091383;28;20044;-76
2023/09/02 07:01:40;;;;;;;22.60;21.08;;;;;;;24.82;100.00;101534.75;5094764;28;20036;-76
2023/09/02 07:04:07;;;;;;;23.25;21.70;;;;;;;25.13;100.00;101538.06;5104268;28;20039;-76
2023/09/02 07:06:35;;;;;;;22.27;20.77;;;;;;;25.61;100.00;101535.47;5096605;28;20447;-76
2023/09/02 07:09:03;;;;;;;25.35;23.63;;;;;;;25.91;100.00;101530.84;5092744;28;20052;-75
2023/09/02 07:11:32;;;;;;;22.80;21.30;;;;;;;25.33;100.00;101546.06;5089910;28;20066;-76
2023/09/02 07:13:59;;;;;;;23.80;22.08;;;;;;;25.18;100.00;101531.81;5091276;28;20127;-76
2023/09/02 07:16:26;;;;;;;24.27;22.48;;;;;;;25.55;100.00;101531.19;5091065;28;20048;-76
2023/09/02 07:18:53;;;;;;;24.17;22.58;;;;;;;25.13;100.00;101529.94;5090843;28;20048;-76
2023/09/02 07:21:22;;;;;;;23.27;21.60;;;;;;;25.55;100.00;101542.88;5091006;28;20056;-76
2023/09/02 07:23:50;;;;;;;24.48;22.70;;;;;;;25.84;100.00;101530.38;5092328;28;20048;-76
2023/09/02 07:26:18;;;;;;;23.75;21.95;;;;;;;25.58;100.00;101536.06;5092060;28;20040;-76
2023/09/02 07:28:45;;;;;;;22.75;21.08;;;;;;;25.49;100.00;101535.88;5091900;28;20036;-76
2023/09/02 07:31:13;;;;;;;22.10;20.50;;;;;;;26.15;100.00;101528.13;5090253;28;20387;-76
2023/09/02 07:33:40;;;;;;;21.75;20.23;;;;;;;25.93;100.00;101534.06;5094078;28;20050;-76
2023/09/02 07:36:10;;;;;;;23.80;22.20;;;;;;;26.14;100.00;101540.09;5092976;28;20040;-76
2023/09/02 07:38:37;;;;;;;23.30;21.70;;;;;;;25.76;100.00;101529.88;5086988;28;20075;-76
2023/09/02 07:41:04;;;;;;;22.35;20.75;;;;;;;26.18;100.00;101522.91;5088578;28;20051;-76
2023/09/02 07:43:33;;;;;;;21.83;20.23;;;;;;;25.94;100.00;101533.78;5094465;28;20051;-76
2023/09/02 07:46:01;;;;;;;21.50;20.00;;;;;;;26.50;100.00;101527.66;5091044;28;20056;-77
2023/09/02 07:48:28;;;;;;;23.70;22.00;;;;;;;27.00;100.00;101523.69;5096654;28;20501;-77
2023/09/02 07:50:55;;;;;;;22.65;21.05;;;;;;;27.30;100.00;101523.19;5092490;28;20044;-77
2023/09/02 07:53:22;;;;;;;25.23;23.33;;;;;;;27.22;100.00;101526.59;5096452;28;20533;-77
2023/09/02 07:55:48;;;;;;;25.98;24.27;;;;;;;27.62;100.00;101526.97;5090605;28;20075;-77
2023/09/02 07:58:15;;;;;;;25.20;23.50;;;;;;;27.61;100.00;101525.38;5089754;28;20055;-77
2023/09/02 08:00:43;;;;;;;26.65;24.85;;;;;;;28.23;100.00;101522.25;5090059;28;20048;-77
2023/09/02 08:03:10;;;;;;;24.58;22.77;;;;;;;28.22;100.00;101517.91;5089023;28;20405;-77
2023/09/02 08:05:40;;;;;;;25.27;23.48;;;;;;;28.21;100.00;101519.03;5089573;28;20044;-77
2023/09/02 08:08:07;;;;;;;25.15;23.35;;;;;;;27.22;100.00;101518.41;5091306;28;20075;-76
2023/09/02 08:10:34;;;;;;;26.40;24.42;;;;;;;27.10;100.00;101513.41;5098882;28;20048;-77
2023/09/02 08:13:04;;;;;;;22.20;20.60;;;;;;;27.56;100.00;101511.81;5090941;28;20157;-77
2023/09/02 08:15:33;;;;;;;21.63;20.02;;;;;;;27.81;100.00;101516.03;5100714;28;20048;-77
2023/09/02 08:18:04;;;;;;;23.17;21.42;;;;;;;28.35;100.00;101508.06;5094329;28;20048;-77
2023/09/02 08:20:31;;;;;;;23.40;21.70;;;;;;;28.56;100.00;101511.97;5088825;28;20052;-77
2023/09/02 08:22:58;;;;;;;23.92;22.23;;;;;;;28.45;100.00;101516.06;5092572;28;20044;-76
2023/09/02 08:25:24;;;;;;;24.67;22.98;;;;;;;29.06;100.00;101508.38;5103403;28;20048;-77
2023/09/02 08:27:51;;;;;;;26.33;24.42;;;;;;;29.64;100.00;101510.97;5092365;28;20595;-77
2023/09/02 08:30:18;;;;;;;26.95;25.13;;;;;;;30.02;100.00;101512.38;5095860;28;20172;-77
2023/09/02 08:32:45;;;;;;;28.83;26.80;;;;;;;29.83;100.00;101507.16;5094054;28;20044;-77
2023/09/02 08:35:13;;;;;;;26.90;25.10;;;;;;;28.99;100.00;101512.34;5089311;28;20052;-77
2023/09/02 08:37:40;;;;;;;29.50;27.60;;;;;;;29.02;100.00;101516.41;5088935;28;20048;-77
2023/09/02 08:40:08;;;;;;;29.27;27.27;;;;;;;30.02;100.00;101504.19;5093557;28;20066;-76
2023/09/02 08:42:36;;;;;;;23.45;21.75;;;;;;;29.63;100.00;101516.75;5091802;28;20040;-76
2023/09/02 08:45:08;;;;;;;26.25;24.45;;;;;;;29.49;100.00;101519.56;5092749;28;20051;-76
2023/09/02 08:47:35;;;;;;;;;;;;;;;30.36;100.00;101514.41;5091158;28;20071;-76
2023/09/02 08:50:03;;;;;;;27.10;25.10;;;;;;;31.63;100.00;101503.91;5094151;28;19969;-76
2023/09/02 08:52:32;;;;;;;26.00;24.10;;;;;;;31.16;100.00;101501.13;5095861;28;20040;-76
2023/09/02 08:55:00;;;;;;;28.55;26.65;;;;;;;30.95;100.00;101503.75;5092405;28;20521;-76
2023/09/02 08:57:28;;;;;;;27.75;25.85;;;;;;;30.85;96.47;101509.59;5091281;28;20129;-76
2023/09/02 08:59:55;;;;;;;25.30;23.45;;;;;;;30.76;99.01;101506.81;5095124;28;20055;-76
2023/09/02 09:02:22;;;;;;;24.02;22.23;;;;;;;30.56;100.00;101507.47;5102165;28;20102;-76
2023/09/02 09:04:50;;;;;;;24.90;23.10;;;;;;;29.77;100.00;101511.16;5089026;28;20444;-76
2023/09/02 09:07:18;;;;;;;25.02;23.33;;;;;;;30.49;100.00;101507.16;5091430;28;20044;-76
2023/09/02 09:09:48;;;;;;;27.17;25.15;;;;;;;31.79;100.00;101506.09;5092261;28;20051;-76
2023/09/02 09:12:18;;;;;;;25.20;23.40;;;;;;;32.57;100.00;101498.19;5093102;28;20051;-76
2023/09/02 09:14:47;;;;;;;22.85;21.15;;;;;;;30.94;100.00;101496.66;5093810;28;20052;-76
2023/09/02 09:17:15;;;;;;;23.20;21.50;;;;;;;31.55;100.00;101496.50;5094623;28;20463;-76
2023/09/02 09:19:42;;;;;;;24.83;22.92;;;;;;;31.71;100.00;101502.25;5094047;28;20055;-77
2023/09/02 09:22:09;;;;;;;22.30;20.60;;;;;;;30.43;100.00;101494.75;5094124;28;20123;-76
2023/09/02 09:24:36;;;;;;;24.33;22.52;;;;;;;30.27;100.00;101491.66;5094295;28;20489;-76
2023/09/02 09:27:06;;;;;;;25.75;23.90;;;;;;;30.77;100.00;101482.94;5091024;28;20055;-76
2023/09/02 09:29:40;;;;;;;23.27;21.58;;;;;;;30.41;100.00;101483.28;5093718;28;20048;-76
2023/09/02 09:32:12;;;;;;;23.45;21.65;;;;;;;32.60;100.00;101478.25;5094336;28;20040;-77
2023/09/02 09:34:40;;;;;;;26.25;24.45;;;;;;;33.07;91.42;101477.16;5092905;28;20428;-76
2023/09/02 09:37:08;;;;;;;29.80;27.80;;;;;;;32.97;92.70;101481.13;5098230;28;20131;-76
2023/09/02 09:39:42;;;;;;;26.80;25.00;;;;;;;33.04;84.20;101484.19;5093379;28;20052;-76
2023/09/02 09:42:12;;;;;;;25.88;24.08;;;;;;;31.80;84.32;101486.56;5094476;28;20520;-76
2023/09/02 09:44:53;;;;;;;25.80;23.90;;;;;;;31.75;91.93;101478.50;5094765;28;20054;-77
2023/09/02 09:47:20;;;;;;;29.85;27.85;;;;;;;31.80;100.00;101477.50;5091378;28;20428;-76
2023/09/02 09:49:49;;;;;;;30.67;28.58;;;;;;;33.14;88.01;101473.88;5096022;28;20052;-76
2023/09/02 09:52:17;;;;;;;29.55;27.55;;;;;;;33.36;82.60;101476.19;5096388;28;20044;-76
2023/09/02 09:54:47;;;;;;;28.50;26.60;;;;;;;33.89;74.29;101471.63;5096436;28;20518;-76
2023/09/02 09:57:16;;;;;;;27.15;25.25;;;;;;;33.93;70.20;101475.28;5091830;28;20044;-76
2023/09/02 09:59:51;;;;;;;26.17;24.38;;;;;;;34.20;64.45;101461.94;5095322;28;20489;-76
2023/09/02 10:02:19;;;;;;;26.63;24.55;;;;;;;34.16;67.05;101472.03;5091732;28;20044;-76
2023/09/02 10:04:53;;;;;;;27.02;24.42;;;;;;;34.59;70.06;101457.56;5093013;28;20048;-76
2023/09/02 10:07:24;;;;;;;25.40;23.60;;;;;;;31.30;89.69;101459.78;5089490;28;20055;-76
2023/09/02 10:09:53;;;;;;;24.50;22.80;;;;;;;31.80;100.00;101459.09;5092292;28;20094;-76
2023/09/02 10:12:22;;;;;;;26.20;24.40;;;;;;;32.40;90.51;101460.59;5100257;28;20063;-76
2023/09/02 10:14:50;;;;;;;26.00;24.20;;;;;;;33.23;85.93;101463.56;5101071;28;20046;-76
2023/09/02 10:17:18;;;;;;;25.63;23.20;;;;;;;32.39;86.01;101466.47;5097483;28;20055;-76
2023/09/02 10:19:46;;;;;;;26.08;24.17;;;;;;;31.17;100.00;101461.63;5091968;28;20035;-76
2023/09/02 10:22:18;;;;;;;26.50;24.50;;;;;;;32.35;88.50;101455.34;5087991;28;20048;-76
2023/09/02 10:24:51;;;;;;;30.80;28.80;;;;;;;31.97;82.99;101451.91;5090420;28;20056;-76
2023/09/02 10:27:22;;;;;;;30.23;28.23;;;;;;;32.23;91.16;101459.97;5096612;28;20052;-76
2023/09/02 10:29:56;;;;;;;25.27;23.58;;;;;;;31.81;96.26;101457.94;5092254;28;20063;-76
2023/09/02 10:32:26;;;;;;;26.58;24.77;;;;;;;32.70;89.34;101451.50;5092831;28;20056;-76
2023/09/02 10:34:59;;;;;;;30.20;28.30;;;;;;;34.01;83.64;101447.94;5097363;28;20048;-76
2023/09/02 10:37:30;;;;;;;29.42;27.52;;;;;;;32.94;77.37;101442.50;5097590;28;20048;-76
2023/09/02 10:40:05;;;;;;;28.02;26.13;;;;;;;34.24;75.63;101443.53;5097057;28;20043;-76
2023/09/02 10:42:36;;;;;;;28.95;26.90;;;;;;;34.94;63.84;101436.78;5096779;28;20139;-76
2023/09/02 10:45:05;;;;;;;32.47;30.45;;;;;;;33.64;73.73;101448.00;5094072;28;20048;-76
2023/09/02 10:47:32;;;;;;;29.70;27.75;;;;;;;34.51;78.90;101441.16;5092919;28;20047;-76
2023/09/02 10:49:59;;;;;;;29.30;27.33;;;;;;;35.32;69.25;101445.28;5091895;28;20519;-76
2023/09/02 10:52:26;;;;;;;25.65;23.77;;;;;;;34.70;67.46;101437.75;5094693;28;20059;-76
2023/09/02 10:55:04;;;;;;;26.45;24.52;;;;;;;31.87;93.84;101434.66;5093341;28;20036;-76
2023/09/02 10:57:32;;;;;;;31.35;29.15;;;;;;;31.45;99.18;101442.81;5094099;28;20048;-76
2023/09/02 11:00:17;;;;;;;28.20;26.20;;;;;;;31.63;98.88;101446.25;5094597;28;20509;-76
2023/09/02 11:02:45;;;;;;;25.40;23.60;;;;;;;33.31;78.56;101443.38;5083936;28;20052;-76
2023/09/02 11:05:13;;;;;;;24.85;22.95;;;;;;;32.97;84.46;101439.06;5090493;28;20044;-76
2023/09/02 11:07:40;;;;;;;22.63;20.83;;;;;;;32.97;79.57;101447.31;5090747;28;20058;-76
2023/09/02 11:10:09;;;;;;;22.33;20.52;;;;;;;32.54;81.20;101445.81;5091213;28;20044;-76
2023/09/02 11:12:56;;;;;;;23.73;21.92;;;;;;;32.45;82.75;101445.09;5091877;28;20044;-76
2023/09/02 11:15:24;;;;;;;25.60;23.70;;;;;;;31.90;86.70;101438.72;5092979;28;20422;-76